Wheatley, United Kingdom
Current Conditions -  °F | °C
As of 4:20 PM on Wednesday 28 Jan 2015 (Local Time) from EGTK Reporting Station
Few Clouds Few Clouds  
Wind Chill: -1°   Ceiling: Unl
Heat Index:   Visibility: 6mi
Dew Point: -1°   Wind: 18mph
Humidity: 70%   Direction: 260°W
Pressure: 29.59"   Gusts: NA
Location:  51.75°N, 1.14°W
Report Text: EGTK 281620Z 26016KT 230V290 9999 FEW041 04/M01 Q1002
Loading
Personal Weather Stations






























Interactive Weather Map New forecast layout! Learn more

10-Day Weather Forecast

Advertisements
Track Severe Weather on mobile